Time;durP1;ratioP1;P1;durP2;ratioP2;P2;SDS_P1;SDS_P2;PMS_P1;PMS_P2;Temp;Humidity;BMP_temperature;BMP_pressure;BME280_temperature;BME280_humidity;BME280_pressure;Samples;Min_cycle;Max_cycle;Signal;HPM_P1;HPM_P2
2021/12/25 00:00:22;;;;;;;7.78;5.10;;;;;;;1.94;100.00;100886.97;5126482;28;20051;-36
2021/12/25 00:02:50;;;;;;;8.30;4.72;;;;;;;1.95;100.00;100885.88;5123359;28;20404;-37
2021/12/25 00:05:18;;;;;;;10.45;5.30;;;;;;;1.93;100.00;100886.13;5118112;28;20385;-34
2021/12/25 00:07:46;;;;;;;6.00;4.22;;;;;;;1.92;100.00;100889.94;5119695;28;20039;-35
2021/12/25 00:10:14;;;;;;;9.02;4.80;;;;;;;1.91;100.00;100881.94;5123023;28;20047;-38
2021/12/25 00:12:42;;;;;;;8.10;4.70;;;;;;;1.91;100.00;100893.78;5122696;28;20047;-30
2021/12/25 00:15:10;;;;;;;8.05;4.63;;;;;;;1.86;100.00;100890.06;5120531;28;20096;-36
2021/12/25 00:17:39;;;;;;;7.22;4.07;;;;;;;1.85;100.00;100888.41;5128837;28;20039;-36
2021/12/25 00:20:07;;;;;;;7.45;4.70;;;;;;;1.85;100.00;100882.91;5123938;28;20043;-35
2021/12/25 00:22:35;;;;;;;11.63;5.35;;;;;;;1.82;100.00;100884.22;5116295;28;20055;-35
2021/12/25 00:25:03;;;;;;;7.93;4.47;;;;;;;1.78;100.00;100888.53;5120645;28;20159;-34
2021/12/25 00:27:43;;;;;;;7.38;4.63;;;;;;;1.74;100.00;100890.09;5127146;28;20492;-34
2021/12/25 00:30:22;;;;;;;9.35;4.88;;;;;;;1.75;100.00;100890.94;5119988;28;20121;-36
2021/12/25 00:32:55;;;;;;;7.95;4.97;;;;;;;1.72;100.00;100884.00;5127068;28;20039;-36
2021/12/25 00:35:23;;;;;;;7.80;5.07;;;;;;;1.72;100.00;100884.84;5122930;28;20038;-36
2021/12/25 00:37:51;;;;;;;7.70;4.53;;;;;;;1.68;100.00;100894.63;5116584;28;20047;-32
2021/12/25 00:40:19;;;;;;;9.38;5.07;;;;;;;1.67;100.00;100881.97;5107792;28;20093;-37
2021/12/25 00:42:47;;;;;;;8.48;5.18;;;;;;;1.67;100.00;100898.47;5112785;28;20122;-39
2021/12/25 00:45:15;;;;;;;8.90;5.25;;;;;;;1.66;100.00;100895.94;5109231;28;20567;-36
2021/12/25 00:47:43;;;;;;;8.00;5.43;;;;;;;1.63;100.00;100896.41;5129515;27;20043;-35
2021/12/25 00:50:12;;;;;;;8.32;5.03;;;;;;;1.64;100.00;100903.59;5113002;27;20094;-38
2021/12/25 00:52:40;;;;;;;8.15;5.03;;;;;;;1.56;100.00;100907.56;5097602;27;20052;-33
2021/12/25 00:55:10;;;;;;;8.45;5.10;;;;;;;1.58;100.00;100905.41;5111413;27;20093;-34
2021/12/25 00:57:39;;;;;;;9.43;5.35;;;;;;;1.53;100.00;100902.53;5116856;27;20039;-37
2021/12/25 01:00:11;;;;;;;8.52;5.70;;;;;;;1.52;100.00;100914.59;5103516;28;20053;-35
2021/12/25 01:02:40;;;;;;;10.67;5.73;;;;;;;1.48;100.00;100913.41;5112849;27;20133;-36
2021/12/25 01:05:10;;;;;;;9.15;5.50;;;;;;;1.44;100.00;100925.94;5126533;27;20396;-35
2021/12/25 01:07:39;;;;;;;10.90;6.45;;;;;;;1.38;100.00;100929.66;5101591;28;20062;-38
2021/12/25 01:10:16;;;;;;;7.57;5.50;;;;;;;1.34;100.00;100914.72;5103559;28;20054;-28
2021/12/25 01:12:55;;;;;;;8.20;5.30;;;;;;;1.29;100.00;100937.41;5111398;27;20081;-33
2021/12/25 01:15:32;;;;;;;9.43;5.70;;;;;;;1.25;100.00;100927.94;5106950;27;20509;-30
2021/12/25 01:18:37;;;;;;;8.90;5.38;;;;;;;1.23;100.00;100930.09;5100871;28;20051;-39
2021/12/25 01:21:30;;;;;;;8.48;4.95;;;;;;;1.23;100.00;100926.50;5106676;27;20076;-35
2021/12/25 01:24:25;;;;;;;8.15;5.53;;;;;;;1.15;100.00;100924.97;5098249;27;20048;-34
2021/12/25 01:27:58;;;;;;;9.32;5.20;;;;;;;1.01;100.00;100923.47;5113184;27;20074;-34
2021/12/25 01:30:34;;;;;;;9.60;5.32;;;;;;;0.99;100.00;100921.00;5124846;27;20045;-36
2021/12/25 01:33:28;;;;;;;8.93;5.18;;;;;;;1.01;100.00;100926.22;5116325;27;20083;-40
2021/12/25 01:36:46;;;;;;;7.70;4.60;;;;;;;1.03;100.00;100918.59;5130984;27;20560;-35
2021/12/25 01:39:52;;;;;;;7.10;4.38;;;;;;;1.02;100.00;100912.25;5104719;27;20047;-36
2021/12/25 01:48:42;;;;;;;9.13;4.18;;;;;;;0.90;100.00;100929.78;5108475;27;20441;-32
2021/12/25 01:51:11;;;;;;;8.40;4.05;;;;;;;0.90;100.00;100918.78;5124562;27;20047;-32
2021/12/25 01:53:39;;;;;;;5.82;3.47;;;;;;;0.86;100.00;100921.16;5115736;27;20055;-34
2021/12/25 01:56:08;;;;;;;6.57;3.50;;;;;;;0.85;100.00;100918.66;5111112;27;20053;-34
2021/12/25 01:58:37;;;;;;;5.80;3.42;;;;;;;0.82;100.00;100932.84;5103859;27;20404;-34
2021/12/25 02:01:07;;;;;;;8.18;4.07;;;;;;;0.81;100.00;100925.69;5109415;27;20069;-35
2021/12/25 02:03:38;;;;;;;8.38;3.72;;;;;;;0.73;100.00;100929.59;5106672;28;20051;-36
2021/12/25 02:06:08;;;;;;;9.32;4.97;;;;;;;0.65;100.00;100929.91;5102041;27;20134;-39
2021/12/25 02:08:37;;;;;;;7.50;4.15;;;;;;;0.57;100.00;100931.09;5104168;27;20042;-41
2021/12/25 02:11:11;;;;;;;8.27;3.92;;;;;;;0.48;100.00;100928.88;5112114;27;20050;-39
2021/12/25 02:13:40;;;;;;;7.18;3.38;;;;;;;0.46;100.00;100937.34;5109588;28;20543;-30
2021/12/25 02:16:15;;;;;;;6.10;3.70;;;;;;;0.40;100.00;100951.19;5101960;27;20134;-36
2021/12/25 02:18:58;;;;;;;7.15;3.10;;;;;;;0.40;100.00;100943.75;5102323;27;20095;-35
2021/12/25 02:21:57;;;;;;;5.68;2.60;;;;;;;0.36;100.00;100950.81;5110903;27;20055;-37
2021/12/25 02:24:24;;;;;;;8.70;2.88;;;;;;;0.29;100.00;100950.03;5122488;27;20101;-30
2021/12/25 02:26:52;;;;;;;6.90;3.35;;;;;;;0.19;100.00;100947.00;5126865;27;20044;-33
2021/12/25 02:29:24;;;;;;;6.63;2.88;;;;;;;0.11;100.00;100939.91;5131764;27;20395;-30
2021/12/25 02:31:55;;;;;;;5.30;2.63;;;;;;;0.09;100.00;100953.00;5110750;27;20088;-35
2021/12/25 02:34:23;;;;;;;4.90;2.05;;;;;;;0.06;100.00;100952.63;5105355;28;20133;-32
2021/12/25 02:36:53;;;;;;;5.43;2.20;;;;;;;-0.01;100.00;100948.06;5099644;27;20047;-33
2021/12/25 02:39:22;;;;;;;3.65;1.90;;;;;;;0.00;100.00;100955.19;5107185;28;20059;-38
2021/12/25 02:41:50;;;;;;;5.60;2.03;;;;;;;-0.03;100.00;100954.84;5114738;27;20040;-38
2021/12/25 02:44:18;;;;;;;6.25;2.03;;;;;;;-0.03;100.00;100946.63;5101958;27;20206;-35
2021/12/25 02:46:53;;;;;;;4.45;2.13;;;;;;;-0.04;100.00;100951.25;5112636;27;20580;-31
2021/12/25 02:49:21;;;;;;;;;;;;;;;-0.08;100.00;100949.19;5100834;27;20075;-31
2021/12/25 02:51:50;;;;;;;4.25;1.80;;;;;;;-0.16;100.00;100957.69;5130796;27;19923;-38
2021/12/25 02:54:19;;;;;;;6.70;2.28;;;;;;;-0.15;100.00;100953.91;5107831;27;20180;-37
2021/12/25 02:56:48;;;;;;;6.05;1.80;;;;;;;-0.18;100.00;100957.09;5113271;27;20071;-33
2021/12/25 02:59:16;;;;;;;6.20;2.40;;;;;;;-0.19;100.00;100956.25;5110310;27;20039;-38
2021/12/25 03:02:05;;;;;;;5.75;2.30;;;;;;;-0.27;100.00;100953.81;5094260;27;20546;-34
2021/12/25 03:04:35;;;;;;;7.85;2.72;;;;;;;-0.28;100.00;100957.63;5109955;27;20047;-37
2021/12/25 03:07:04;;;;;;;6.20;2.90;;;;;;;-0.28;100.00;100963.09;5114486;27;20060;-34
2021/12/25 03:09:33;;;;;;;5.85;2.40;;;;;;;-0.26;100.00;100952.75;5101097;28;20055;-35
2021/12/25 03:12:05;;;;;;;5.93;2.00;;;;;;;-0.28;100.00;100959.53;5111044;27;20069;-36
2021/12/25 03:14:37;;;;;;;3.78;1.73;;;;;;;-0.37;100.00;100954.31;5120597;27;20059;-39
2021/12/25 03:17:05;;;;;;;4.65;2.00;;;;;;;-0.39;100.00;100964.66;5097411;28;20051;-31
2021/12/25 03:19:34;;;;;;;8.32;2.33;;;;;;;-0.46;100.00;100958.41;5102194;28;20096;-33
2021/12/25 03:22:04;;;;;;;5.68;1.83;;;;;;;-0.49;100.00;100969.81;5107840;27;20055;-33
2021/12/25 03:24:33;;;;;;;3.55;1.77;;;;;;;-0.53;100.00;100965.84;5105329;27;20054;-31
2021/12/25 03:27:00;;;;;;;3.45;1.45;;;;;;;-0.52;100.00;100963.94;5119784;27;20370;-32
2021/12/25 03:29:28;;;;;;;5.82;1.90;;;;;;;-0.55;100.00;100965.22;5104137;27;20047;-30
2021/12/25 03:31:56;;;;;;;4.78;2.38;;;;;;;-0.61;100.00;100966.16;5103008;28;20116;-31
2021/12/25 03:34:24;;;;;;;4.65;2.30;;;;;;;-0.63;100.00;100970.16;5101553;27;20166;-39
2021/12/25 03:36:51;;;;;;;5.70;2.30;;;;;;;-0.65;100.00;100978.59;5120095;27;20473;-36
2021/12/25 03:39:20;;;;;;;4.47;2.05;;;;;;;-0.65;100.00;100975.88;5107486;27;20043;-33
2021/12/25 03:41:49;;;;;;;6.40;2.20;;;;;;;-0.71;100.00;100983.06;5102560;28;20039;-33
2021/12/25 03:44:17;;;;;;;6.05;1.80;;;;;;;-0.75;100.00;100979.09;5126273;27;20046;-35
2021/12/25 03:46:45;;;;;;;4.85;1.80;;;;;;;-0.76;100.00;100995.75;5123491;27;20036;-38
2021/12/25 03:49:25;;;;;;;4.88;1.60;;;;;;;-0.81;100.00;100987.38;5110026;28;20096;-31
2021/12/25 03:57:41;;;;;;;5.18;1.40;;;;;;;-0.90;100.00;100995.00;5103979;28;20056;-40
2021/12/25 04:00:15;;;;;;;5.30;1.30;;;;;;;-0.92;100.00;101005.34;5101217;28;20044;-35
2021/12/25 04:02:53;;;;;;;2.50;1.00;;;;;;;-0.97;100.00;101007.06;5123731;28;20413;-32
2021/12/25 04:05:34;;;;;;;5.50;1.23;;;;;;;-1.06;100.00;101009.22;5102030;28;20071;-30
2021/12/25 04:08:06;;;;;;;4.15;0.95;;;;;;;-1.05;100.00;101005.44;5122120;28;20066;-31
2021/12/25 04:10:37;;;;;;;2.83;0.95;;;;;;;-1.03;100.00;101016.16;5117196;28;20103;-34
2021/12/25 04:13:08;;;;;;;2.95;0.80;;;;;;;-1.03;100.00;101017.00;5122331;28;20126;-30
2021/12/25 04:15:36;;;;;;;4.38;1.40;;;;;;;-1.04;100.00;101020.81;5117672;28;20050;-33
2021/12/25 04:18:05;;;;;;;3.95;0.88;;;;;;;-1.05;100.00;101025.44;5105474;28;20506;-37
2021/12/25 04:20:33;;;;;;;4.97;1.00;;;;;;;-1.07;100.00;101024.81;5099166;28;20565;-31
2021/12/25 04:23:04;;;;;;;2.72;0.82;;;;;;;-1.11;100.00;101036.41;5112267;27;20062;-35
2021/12/25 04:25:34;;;;;;;2.30;0.70;;;;;;;-1.15;100.00;101024.22;5112490;27;20035;-33
2021/12/25 04:28:10;;;;;;;6.55;1.00;;;;;;;-1.20;100.00;101022.13;5104919;27;20046;-37
2021/12/25 04:30:59;;;;;;;3.15;0.70;;;;;;;-1.23;100.00;101030.81;5131618;27;20101;-37
2021/12/25 04:50:30;;;;;;;3.45;0.90;;;;;;;-1.40;100.00;101033.16;5102161;28;20054;-37
2021/12/25 05:01:53;;;;;;;4.38;1.10;;;;;;;-1.54;100.00;101039.75;5031462;28;20060;-33
2021/12/25 05:04:45;;;;;;;2.60;0.82;;;;;;;-1.55;100.00;101053.63;5048858;28;20047;-37
2021/12/25 05:07:22;;;;;;;3.15;0.90;;;;;;;-1.56;100.00;101057.44;5091099;27;20043;-33
2021/12/25 05:09:50;;;;;;;2.33;0.70;;;;;;;-1.62;100.00;101052.84;5107671;28;20427;-36
2021/12/25 05:12:18;;;;;;;3.60;0.88;;;;;;;-1.63;100.00;101043.78;5118490;27;20412;-32
2021/12/25 05:14:46;;;;;;;3.30;1.00;;;;;;;-1.63;100.00;101051.16;5122322;27;20078;-35
2021/12/25 05:17:14;;;;;;;3.92;0.88;;;;;;;-1.66;100.00;101057.91;5112489;27;20047;-38
2021/12/25 05:19:43;;;;;;;4.20;0.70;;;;;;;-1.67;100.00;101064.41;5104919;27;20047;-33
2021/12/25 05:22:15;;;;;;;2.47;0.55;;;;;;;-1.69;100.00;101062.94;5113448;27;20044;-33
2021/12/25 05:24:42;;;;;;;2.60;0.70;;;;;;;-1.69;100.00;101057.47;5103313;27;20081;-36
2021/12/25 05:27:13;;;;;;;2.13;0.65;;;;;;;-1.71;100.00;101063.16;5115765;27;20126;-32
2021/12/25 05:29:45;;;;;;;2.78;0.90;;;;;;;-1.77;100.00;101070.31;5100860;27;20044;-38
2021/12/25 05:32:19;;;;;;;6.82;0.98;;;;;;;-1.83;100.00;101070.34;5115707;27;20051;-38
2021/12/25 05:35:07;;;;;;;3.30;0.60;;;;;;;-1.83;100.00;101073.94;5126299;27;20517;-32
2021/12/25 05:38:02;;;;;;;1.45;0.60;;;;;;;-1.86;100.00;101077.09;5103336;27;20043;-32
2021/12/25 05:40:45;;;;;;;;;;;;;;;-1.92;100.00;101083.38;5126076;27;20048;-33
2021/12/25 05:43:14;;;;;;;3.42;0.60;;;;;;;-1.92;100.00;101088.84;5117257;27;19946;-35
2021/12/25 05:45:43;;;;;;;2.22;0.68;;;;;;;-1.94;100.00;101088.22;5122507;27;20047;-37
2021/12/25 05:48:18;;;;;;;2.53;0.60;;;;;;;-1.96;100.00;101100.41;5112406;27;20039;-36
2021/12/25 05:51:16;;;;;;;2.75;0.80;;;;;;;-2.04;100.00;101108.84;5110756;27;20082;-37
2021/12/25 05:54:15;;;;;;;3.65;0.60;;;;;;;-2.07;100.00;101101.91;5106194;27;20537;-33
2021/12/25 05:57:06;;;;;;;2.22;0.60;;;;;;;-2.12;100.00;101109.91;5111189;27;20233;-31
2021/12/25 05:59:57;;;;;;;2.88;0.65;;;;;;;-2.11;100.00;101109.69;5112204;27;20046;-39
2021/12/25 06:02:43;;;;;;;2.13;0.57;;;;;;;-2.16;100.00;101105.91;5131718;27;20047;-36
2021/12/25 06:05:25;;;;;;;2.25;0.60;;;;;;;-2.12;100.00;101105.28;5110054;27;20047;-31
2021/12/25 06:07:54;;;;;;;2.83;0.65;;;;;;;-2.11;100.00;101106.94;5134362;27;20062;-31
2021/12/25 06:10:23;;;;;;;2.10;0.75;;;;;;;-2.12;100.00;101110.75;5121967;27;20051;-32
2021/12/25 06:12:54;;;;;;;1.80;0.60;;;;;;;-2.15;100.00;101104.84;5098916;28;20047;-32
2021/12/25 06:15:23;;;;;;;1.65;0.50;;;;;;;-2.14;100.00;101104.63;5103264;28;20036;-35
2021/12/25 06:18:17;;;;;;;0.90;0.30;;;;;;;-2.15;100.00;101115.78;5125330;27;20072;-31
2021/12/25 06:21:09;;;;;;;3.67;0.50;;;;;;;-2.15;100.00;101113.03;5110983;27;20054;-31
2021/12/25 06:23:56;;;;;;;1.70;0.50;;;;;;;-2.17;100.00;101115.13;5096166;27;20492;-34
2021/12/25 06:26:55;;;;;;;1.65;0.40;;;;;;;-2.19;100.00;101118.09;5110125;27;20047;-35
2021/12/25 06:29:39;;;;;;;3.45;0.65;;;;;;;-2.21;99.74;101122.09;5132229;27;20082;-36
2021/12/25 06:32:17;;;;;;;2.15;0.40;;;;;;;-2.23;99.67;101125.03;5102565;27;20047;-32
2021/12/25 06:34:58;;;;;;;2.60;0.60;;;;;;;-2.24;99.14;101125.25;5110427;27;20043;-31
2021/12/25 06:37:46;;;;;;;1.90;0.50;;;;;;;-2.26;98.30;101128.19;5106183;28;20073;-33
2021/12/25 06:40:34;;;;;;;4.40;0.60;;;;;;;-2.26;98.07;101127.34;5117800;27;20181;-36
2021/12/25 06:43:03;;;;;;;2.85;0.57;;;;;;;-2.30;97.44;101126.91;5114498;27;20487;-33
2021/12/25 06:45:31;;;;;;;2.33;0.68;;;;;;;-2.35;96.67;101128.59;5107913;28;20052;-35
2021/12/25 06:47:59;;;;;;;2.88;0.98;;;;;;;-2.31;97.88;101127.97;5104832;28;20093;-29
2021/12/25 06:50:45;;;;;;;3.42;0.60;;;;;;;-2.31;97.37;101133.44;5122313;27;20125;-35
2021/12/25 06:53:37;;;;;;;1.80;0.50;;;;;;;-2.36;96.56;101135.94;5121983;27;20487;-31
2021/12/25 06:56:27;;;;;;;3.35;0.70;;;;;;;-2.40;96.23;101139.31;5118748;27;20059;-35
2021/12/25 06:59:06;;;;;;;2.63;0.50;;;;;;;-2.39;97.30;101139.09;5101587;28;20065;-34
2021/12/25 07:01:40;;;;;;;3.97;0.70;;;;;;;-2.39;97.17;101143.72;5104738;27;20043;-35
2021/12/25 07:04:14;;;;;;;4.03;0.77;;;;;;;-2.39;97.67;101143.72;5119815;27;20089;-36
2021/12/25 07:07:13;;;;;;;3.28;0.60;;;;;;;-2.44;96.74;101156.13;5108228;27;20068;-34
2021/12/25 07:09:55;;;;;;;1.75;0.57;;;;;;;-2.43;97.65;101156.97;5097376;28;20142;-33
2021/12/25 07:12:36;;;;;;;2.17;0.70;;;;;;;-2.44;98.43;101149.81;5098826;28;20078;-37
2021/12/25 07:15:31;;;;;;;2.10;0.70;;;;;;;-2.50;97.96;101154.22;5094665;27;20199;-32
2021/12/25 07:18:35;;;;;;;1.60;0.63;;;;;;;-2.52;98.38;101152.72;5109060;27;20047;-33
2021/12/25 07:21:22;;;;;;;1.73;0.70;;;;;;;-2.55;98.95;101150.41;5115371;27;20409;-35
2021/12/25 07:24:04;;;;;;;3.00;0.90;;;;;;;-2.56;99.37;101160.47;5108418;28;20404;-35
2021/12/25 07:26:35;;;;;;;;;;;;;;;-2.61;99.86;101153.97;5100098;27;20066;-34
2021/12/25 07:29:18;;;;;;;4.13;0.82;;;;;;;-2.61;100.00;101175.84;5108939;27;19931;-36
2021/12/25 07:31:46;;;;;;;2.85;0.70;;;;;;;-2.61;100.00;101163.00;5127010;27;20048;-35
2021/12/25 07:34:14;;;;;;;2.28;0.70;;;;;;;-2.59;100.00;101169.09;5118353;27;20057;-36
2021/12/25 07:36:42;;;;;;;3.15;0.88;;;;;;;-2.58;100.00;101164.47;5125863;27;20435;-39
2021/12/25 07:39:10;;;;;;;3.78;0.90;;;;;;;-2.59;100.00;101163.63;5118175;27;20043;-35
2021/12/25 07:41:42;;;;;;;4.75;1.00;;;;;;;-2.60;100.00;101159.25;5130148;27;20041;-31
2021/12/25 07:44:17;;;;;;;3.05;1.05;;;;;;;-2.64;100.00;101168.88;5098498;27;20070;-35
2021/12/25 07:46:50;;;;;;;2.80;0.98;;;;;;;-2.68;100.00;101181.25;5129098;27;20050;-30
2021/12/25 07:49:20;;;;;;;3.38;1.00;;;;;;;-2.71;100.00;101176.19;5114046;27;20496;-35
2021/12/25 07:51:48;;;;;;;2.55;0.98;;;;;;;-2.72;100.00;101181.88;5128746;27;20039;-36
2021/12/25 07:54:17;;;;;;;2.17;1.10;;;;;;;-2.74;100.00;101176.59;5118433;27;20429;-29
2021/12/25 07:56:45;;;;;;;3.17;0.90;;;;;;;-2.75;100.00;101177.66;5128534;27;20483;-33
2021/12/25 07:59:13;;;;;;;2.13;0.95;;;;;;;-2.72;100.00;101193.63;5123128;27;20051;-33
2021/12/25 08:01:43;;;;;;;1.55;0.80;;;;;;;-2.70;100.00;101183.34;5130854;28;20069;-28
2021/12/25 08:04:10;;;;;;;2.35;1.23;;;;;;;-2.73;100.00;101180.19;5118995;28;20507;-37
2021/12/25 08:06:39;;;;;;;2.60;0.98;;;;;;;-2.73;100.00;101186.50;5126253;28;20043;-36
2021/12/25 08:09:07;;;;;;;2.45;0.90;;;;;;;-2.75;100.00;101180.38;5125710;28;20057;-31
2021/12/25 08:11:36;;;;;;;2.83;0.90;;;;;;;-2.75;100.00;101187.72;5114327;28;20035;-38
2021/12/25 08:14:04;;;;;;;2.25;0.90;;;;;;;-2.78;100.00;101197.16;5118416;28;20039;-31
2021/12/25 08:16:32;;;;;;;2.70;1.00;;;;;;;-2.79;100.00;101198.22;5122404;28;20498;-35
2021/12/25 08:19:01;;;;;;;2.92;0.82;;;;;;;-2.82;99.88;101193.19;5124661;28;20078;-36
2021/12/25 08:21:47;;;;;;;2.10;0.80;;;;;;;-2.81;98.52;101211.25;5123088;28;20054;-28
2021/12/25 08:24:33;;;;;;;2.88;0.80;;;;;;;-2.78;98.09;101208.94;5124916;28;20042;-32
2021/12/25 08:27:19;;;;;;;3.70;0.80;;;;;;;-2.79;96.17;101206.41;5115149;28;20046;-33
2021/12/25 08:30:18;;;;;;;2.50;0.90;;;;;;;-2.73;96.26;101213.78;5039297;28;20192;-29
2021/12/25 08:33:04;;;;;;;2.45;1.48;;;;;;;-2.70;95.97;101216.13;5111967;28;20203;-35
2021/12/25 08:35:45;;;;;;;3.88;0.70;;;;;;;-2.69;94.78;101217.81;5115371;28;20055;-39
2021/12/25 08:38:14;;;;;;;3.63;1.02;;;;;;;-2.64;94.54;101222.66;5127833;28;20050;-35
2021/12/25 08:40:43;;;;;;;1.88;0.77;;;;;;;-2.64;92.74;101222.66;5128642;28;20065;-34
2021/12/25 08:43:14;;;;;;;2.17;1.25;;;;;;;-2.60;92.65;101227.53;5112251;28;20040;-35
2021/12/25 08:45:45;;;;;;;3.13;1.00;;;;;;;-2.52;92.94;101227.34;5127823;28;20047;-34
2021/12/25 08:48:17;;;;;;;3.00;1.10;;;;;;;-2.49;93.30;101228.81;5112888;28;20044;-36
2021/12/25 08:50:49;;;;;;;3.42;0.80;;;;;;;-2.49;92.45;101239.75;5122041;28;20047;-34
2021/12/25 08:53:18;;;;;;;2.63;0.88;;;;;;;-2.47;91.77;101226.72;5113177;28;20046;-35
2021/12/25 08:55:47;;;;;;;2.58;0.70;;;;;;;-2.47;89.09;101243.97;5124015;28;20510;-31
2021/12/25 08:58:15;;;;;;;1.98;0.70;;;;;;;-2.46;88.06;101237.44;5115664;28;20504;-34
2021/12/25 09:00:44;;;;;;;3.05;1.10;;;;;;;-2.44;87.53;101239.97;5121254;28;20460;-30
2021/12/25 09:03:12;;;;;;;3.78;1.02;;;;;;;-2.38;88.13;101241.03;5130112;28;20484;-29
2021/12/25 09:05:40;;;;;;;3.55;0.90;;;;;;;-2.34;85.67;101245.88;5124518;28;20039;-31
2021/12/25 09:08:10;;;;;;;2.60;0.80;;;;;;;-2.23;84.23;101248.03;5118303;28;20056;-35
2021/12/25 09:10:38;;;;;;;1.92;0.90;;;;;;;-2.03;83.79;101244.50;5121255;27;20052;-34
2021/12/25 09:13:06;;;;;;;1.40;0.50;;;;;;;-1.76;83.20;101251.69;5120404;27;20051;-34
2021/12/25 09:15:34;;;;;;;2.53;0.52;;;;;;;-1.49;82.32;101260.75;5129369;27;20036;-32
2021/12/25 09:18:02;;;;;;;2.70;0.60;;;;;;;-1.27;80.61;101251.28;5125289;27;20109;-38
2021/12/25 09:20:29;;;;;;;1.40;0.40;;;;;;;-1.13;77.73;101252.94;5118431;27;20148;-34
2021/12/25 09:22:58;;;;;;;2.60;0.70;;;;;;;-0.93;78.18;101269.34;5122399;27;20050;-34
2021/12/25 09:25:27;;;;;;;2.05;0.43;;;;;;;-0.72;77.66;101257.28;5130687;27;20174;-32
2021/12/25 09:27:56;;;;;;;2.42;0.70;;;;;;;-0.40;78.49;101259.03;5125047;27;20459;-33
2021/12/25 09:30:25;;;;;;;1.73;0.60;;;;;;;-0.17;76.01;101268.66;5118187;27;20221;-32
2021/12/25 09:32:53;;;;;;;2.30;0.60;;;;;;;-0.04;72.09;101274.09;5130688;27;20051;-33
2021/12/25 09:35:21;;;;;;;0.82;0.40;;;;;;;0.01;71.63;101271.50;5115449;27;20058;-34
2021/12/25 09:37:49;;;;;;;3.53;0.60;;;;;;;0.06;72.10;101266.22;5129249;27;20051;-34
2021/12/25 09:40:17;;;;;;;2.22;0.45;;;;;;;0.19;70.92;101266.16;5132359;27;20039;-34
2021/12/25 09:42:46;;;;;;;2.42;0.40;;;;;;;0.16;68.25;101276.72;5128249;27;20057;-34
2021/12/25 09:45:14;;;;;;;1.50;0.35;;;;;;;0.02;66.95;101286.91;5115492;27;20056;-31
2021/12/25 09:47:43;;;;;;;1.55;0.40;;;;;;;-0.16;68.36;101273.06;5127685;27;20178;-29
2021/12/25 09:50:12;;;;;;;1.17;0.50;;;;;;;-0.39;67.44;101279.06;5115715;27;20040;-33
2021/12/25 09:52:40;;;;;;;3.03;0.52;;;;;;;-0.62;68.65;101290.56;5124164;27;20048;-36
2021/12/25 09:55:08;;;;;;;1.48;0.50;;;;;;;-0.77;69.13;101277.09;5127089;27;20058;-38
2021/12/25 09:57:36;;;;;;;1.80;0.45;;;;;;;-0.78;71.12;101283.63;5124705;27;20412;-40
2021/12/25 10:00:10;;;;;;;4.65;0.75;;;;;;;-0.89;69.27;101288.94;5125510;27;20480;-36
2021/12/25 10:02:44;;;;;;;1.33;0.38;;;;;;;-0.97;69.72;101286.41;5128942;27;20043;-36
2021/12/25 10:05:12;;;;;;;0.98;0.32;;;;;;;-1.09;69.78;101291.69;5120767;27;20047;-39
2021/12/25 10:07:41;;;;;;;1.63;0.30;;;;;;;-1.11;70.90;101293.81;5122369;27;20038;-36
2021/12/25 10:10:11;;;;;;;2.83;0.43;;;;;;;-1.17;71.38;101291.91;5122022;27;20048;-34
2021/12/25 10:12:42;;;;;;;1.88;0.50;;;;;;;-1.16;72.32;101288.97;5118948;27;20441;-33
2021/12/25 10:15:15;;;;;;;2.25;0.60;;;;;;;-1.11;71.91;101294.66;5121378;27;20047;-31
2021/12/25 10:17:46;;;;;;;2.50;0.55;;;;;;;-0.95;72.75;101303.47;5128763;27;20046;-38
2021/12/25 10:20:18;;;;;;;3.15;0.50;;;;;;;-0.88;71.35;101293.38;5124078;27;20063;-29
2021/12/25 10:23:02;;;;;;;2.63;0.60;;;;;;;-0.74;72.40;101295.00;5119936;27;20044;-37
2021/12/25 10:25:38;;;;;;;3.67;0.90;;;;;;;-0.63;70.56;101294.38;5122592;27;20050;-36
2021/12/25 10:28:09;;;;;;;2.85;0.60;;;;;;;-0.56;69.88;101303.38;5122191;27;20054;-35
2021/12/25 10:30:50;;;;;;;2.10;0.63;;;;;;;-0.51;70.02;101294.53;5124006;27;20145;-33
2021/12/25 10:33:26;;;;;;;5.05;0.90;;;;;;;-0.49;69.21;101292.41;5120516;27;20057;-37
2021/12/25 10:35:55;;;;;;;2.15;0.70;;;;;;;-0.42;69.48;101288.59;5121391;27;20133;-32
2021/12/25 10:38:24;;;;;;;2.22;0.60;;;;;;;-0.25;70.82;101290.84;5127218;27;20111;-38
2021/12/25 10:41:11;;;;;;;2.08;0.70;;;;;;;-0.02;71.32;101294.75;5122486;27;20047;-39
2021/12/25 10:43:41;;;;;;;2.17;0.80;;;;;;;0.16;70.69;101287.69;5120059;27;20058;-34
2021/12/25 10:46:11;;;;;;;1.58;0.60;;;;;;;0.24;69.72;101273.69;5122597;27;20504;-39
2021/12/25 10:48:39;;;;;;;2.03;0.50;;;;;;;0.25;67.91;101284.44;5120283;27;20504;-30
2021/12/25 10:51:23;;;;;;;2.30;0.63;;;;;;;0.30;68.25;101268.16;5129882;27;20051;-38
2021/12/25 10:53:53;;;;;;;2.55;0.50;;;;;;;0.29;67.53;101274.72;5106382;27;20490;-37
2021/12/25 10:56:21;;;;;;;1.20;0.40;;;;;;;0.32;67.96;101256.97;5123028;27;20054;-39
2021/12/25 10:58:49;;;;;;;1.10;0.30;;;;;;;0.33;66.61;101261.41;5117640;27;20054;-38
2021/12/25 11:01:19;;;;;;;1.83;0.50;;;;;;;0.31;66.49;101255.28;5122527;27;20062;-33
2021/12/25 11:03:47;;;;;;;1.88;0.50;;;;;;;0.30;65.84;101251.69;5116382;27;20100;-33
2021/12/25 11:06:18;;;;;;;3.70;0.60;;;;;;;0.33;65.14;101255.91;5100887;27;20085;-35
2021/12/25 11:08:48;;;;;;;2.55;0.57;;;;;;;0.33;65.98;101259.50;5129893;27;20138;-30
2021/12/25 11:11:18;;;;;;;1.52;0.40;;;;;;;0.36;66.18;101266.44;5124919;27;20415;-34
2021/12/25 11:13:48;;;;;;;2.13;0.40;;;;;;;0.34;66.15;101265.81;5115353;27;20066;-34
2021/12/25 11:16:27;;;;;;;2.92;0.50;;;;;;;0.31;66.55;101264.34;5124542;27;20047;-35
2021/12/25 11:19:05;;;;;;;2.28;0.60;;;;;;;0.17;64.15;101270.16;5130424;27;20074;-33
2021/12/25 11:21:35;;;;;;;1.27;0.40;;;;;;;0.02;64.78;101267.69;5117142;27;20047;-33
2021/12/25 11:24:09;;;;;;;1.70;0.50;;;;;;;0.03;66.49;101269.38;5131116;27;20047;-37
2021/12/25 11:26:38;;;;;;;1.38;0.60;;;;;;;0.06;66.06;101271.69;5116151;27;20097;-35
2021/12/25 11:29:09;;;;;;;2.08;0.50;;;;;;;0.08;66.13;101266.81;5129138;27;20047;-36
2021/12/25 11:31:40;;;;;;;1.45;0.50;;;;;;;0.10;65.66;101258.38;5129573;27;20059;-35
2021/12/25 11:34:09;;;;;;;2.53;0.60;;;;;;;0.09;65.03;101257.53;5111603;27;20075;-32
2021/12/25 11:36:38;;;;;;;2.60;0.80;;;;;;;0.04;64.55;101248.28;5124719;27;20053;-34
2021/12/25 11:39:07;;;;;;;1.85;0.80;;;;;;;0.09;65.68;101251.22;5129967;27;20055;-32
2021/12/25 11:41:37;;;;;;;3.63;0.80;;;;;;;0.11;64.87;101251.84;5122754;27;20035;-36
2021/12/25 11:44:26;;;;;;;3.40;0.60;;;;;;;0.15;65.47;101248.44;5131437;27;20047;-32
2021/12/25 11:46:55;;;;;;;2.22;0.52;;;;;;;0.08;64.20;101250.38;5126164;27;20492;-34
2021/12/25 11:49:23;;;;;;;1.58;0.50;;;;;;;0.05;64.01;101258.19;5111845;27;20146;-37
2021/12/25 11:51:51;;;;;;;2.40;0.60;;;;;;;0.01;64.18;101255.03;5126056;27;20485;-35
2021/12/25 11:54:39;;;;;;;3.20;0.70;;;;;;;-0.03;63.65;101251.91;5130804;27;20514;-37
2021/12/25 11:57:31;;;;;;;4.00;0.70;;;;;;;-0.03;63.71;101259.31;5122219;27;20464;-33
2021/12/25 12:00:00;;;;;;;3.08;0.80;;;;;;;-0.01;63.72;101257.19;5112564;27;20231;-31
2021/12/25 12:02:40;;;;;;;2.03;0.60;;;;;;;0.11;65.61;101249.94;5116905;27;20450;-36
2021/12/25 12:05:24;;;;;;;4.03;0.73;;;;;;;0.17;63.50;101254.53;5112008;28;20206;-32
2021/12/25 12:08:08;;;;;;;1.92;0.60;;;;;;;-0.02;59.66;101247.28;5128740;28;20455;-34
2021/12/25 12:11:20;;;;;;;2.85;0.60;;;;;;;-0.11;63.41;101251.31;5114955;28;20065;-32
2021/12/25 12:14:26;;;;;;;1.80;0.50;;;;;;;-0.17;63.79;101250.28;5008293;28;20052;-32
2021/12/25 12:17:31;;;;;;;4.22;0.65;;;;;;;-0.17;64.57;101252.19;5117998;28;20221;-30
2021/12/25 12:20:03;;;;;;;1.95;0.70;;;;;;;-0.15;63.95;101253.66;5108051;28;20057;-31
2021/12/25 12:22:51;;;;;;;3.03;0.70;;;;;;;-0.15;63.60;101250.06;5122665;28;20120;-33
2021/12/25 12:25:26;;;;;;;1.85;0.50;;;;;;;-0.14;63.75;101249.03;5130246;28;20054;-38
2021/12/25 12:27:57;;;;;;;1.55;0.50;;;;;;;-0.12;64.35;101255.97;5123131;28;20046;-35
2021/12/25 12:30:41;;;;;;;2.17;0.65;;;;;;;-0.06;65.13;101251.50;5131207;28;20053;-39
2021/12/25 12:33:31;;;;;;;2.58;0.50;;;;;;;-0.03;64.48;101254.66;5123237;28;20450;-33
2021/12/25 12:36:01;;;;;;;1.38;0.45;;;;;;;-0.05;64.45;101250.47;5113357;28;20479;-37